Time;durP1;ratioP1;P1;durP2;ratioP2;P2;SDS_P1;SDS_P2;PMS_P1;PMS_P2;Temp;Humidity;BMP_temperature;BMP_pressure;BME280_temperature;BME280_humidity;BME280_pressure;Samples;Min_cycle;Max_cycle;Signal;HPM_P1;HPM_P2
2021/08/24 00:00:20;;;;;;;;;65.75;51.50;34.60;27.10;;;;;;688943;28;5977;-82
2021/08/24 00:00:41;;;;;;;;;66.60;54.00;34.60;27.00;;;;;;688668;28;6294;-82
2021/08/24 00:01:02;;;;;;;;;65.00;53.00;34.70;27.10;;;;;;688721;28;6278;-82
2021/08/24 00:01:22;;;;;;;;;64.60;52.60;34.60;27.00;;;;;;688937;28;5997;-82
2021/08/24 00:01:43;;;;;;;;;62.00;51.00;34.60;27.00;;;;;;689804;28;6272;-83
2021/08/24 00:02:04;;;;;;;;;62.25;51.25;34.60;27.10;;;;;;690104;28;5882;-82
2021/08/24 00:02:25;;;;;;;;;64.00;52.00;34.70;27.10;;;;;;687500;28;6002;-83
2021/08/24 00:02:45;;;;;;;;;64.00;51.60;34.60;27.00;;;;;;684385;28;6086;-82
2021/08/24 00:03:06;;;;;;;;;63.50;50.00;34.60;27.10;;;;;;685022;28;6225;-82
2021/08/24 00:03:27;;;;;;;;;66.00;52.25;34.60;27.10;;;;;;684889;28;6597;-82
2021/08/24 00:03:48;;;;;;;;;63.25;51.75;34.70;27.20;;;;;;684804;28;5894;-84
2021/08/24 00:04:09;;;;;;;;;58.60;48.00;34.70;27.10;;;;;;685136;28;5981;-83
2021/08/24 00:04:30;;;;;;;;;62.00;50.00;34.60;27.10;;;;;;688778;28;6214;-82
2021/08/24 00:04:51;;;;;;;;;61.60;50.60;34.70;27.10;;;;;;688860;28;6190;-82
2021/08/24 00:05:16;;;;;;;;;58.75;48.00;34.60;27.10;;;;;;688772;28;6262;-82
2021/08/24 00:05:38;;;;;;;;;60.40;49.40;34.70;27.10;;;;;;688688;28;6170;-82
2021/08/24 00:05:58;;;;;;;;;60.50;48.50;34.60;27.10;;;;;;688621;28;6482;-82
2021/08/24 00:06:19;;;;;;;;;60.25;49.50;34.70;27.20;;;;;;688547;28;6747;-82
2021/08/24 00:06:40;;;;;;;;;61.00;49.00;34.70;27.40;;;;;;688816;28;6217;-81
2021/08/24 00:07:01;;;;;;;;;62.75;51.00;34.60;27.10;;;;;;688904;28;6772;-82
2021/08/24 00:07:21;;;;;;;;;60.75;49.00;34.70;27.20;;;;;;686688;28;6347;-82
2021/08/24 00:07:42;;;;;;;;;59.40;49.00;34.60;27.10;;;;;;687845;28;5983;-82
2021/08/24 00:08:07;;;;;;;;;62.25;50.75;34.60;27.10;;;;;;689411;28;6104;-83
2021/08/24 00:08:27;;;;;;;;;61.00;50.00;34.70;27.20;;;;;;690097;28;8053;-83
2021/08/24 00:08:48;;;;;;;;;62.00;50.00;34.60;27.20;;;;;;689354;28;6093;-81
2021/08/24 00:09:09;;;;;;;;;60.20;49.00;34.60;27.20;;;;;;689574;28;6098;-83
2021/08/24 00:09:30;;;;;;;;;61.50;50.00;34.60;27.20;;;;;;688610;28;5990;-82
2021/08/24 00:09:50;;;;;;;;;60.20;49.00;34.60;27.20;;;;;;688828;28;6000;-82
2021/08/24 00:10:11;;;;;;;;;57.00;47.67;34.60;27.20;;;;;;688725;28;5322;-82
2021/08/24 00:10:39;;;;;;;;;61.50;50.00;34.60;27.20;;;;;;688877;28;6258;-82
2021/08/24 00:11:00;;;;;;;;;60.80;49.80;34.60;27.20;;;;;;688191;28;6394;-83
2021/08/24 00:11:21;;;;;;;;;58.20;47.80;34.60;27.20;;;;;;688705;28;6183;-82
2021/08/24 00:11:42;;;;;;;;;60.25;48.25;34.70;27.20;;;;;;689683;28;6135;-82
2021/08/24 00:12:04;;;;;;;;;59.00;48.00;34.60;27.20;;;;;;690163;28;6848;-82
2021/08/24 00:12:24;;;;;;;;;58.80;48.60;34.60;27.20;;;;;;689863;28;6213;-82
2021/08/24 00:12:45;;;;;;;;;62.00;49.50;34.60;27.20;;;;;;690187;28;5973;-82
2021/08/24 00:13:06;;;;;;;;;60.00;48.50;34.60;27.20;;;;;;687530;28;6151;-83
2021/08/24 00:13:28;;;;;;;;;60.20;48.00;34.60;27.20;;;;;;688779;28;6190;-82
2021/08/24 00:13:49;;;;;;;;;61.25;48.25;34.60;27.30;;;;;;688299;28;6343;-83
2021/08/24 00:14:10;;;;;;;;;55.20;46.20;34.70;27.30;;;;;;688071;28;6042;-80
2021/08/24 00:14:31;;;;;;;;;59.25;48.25;34.60;27.30;;;;;;688686;28;6127;-81
2021/08/24 00:14:51;;;;;;;;;55.00;46.00;34.70;27.30;;;;;;688616;28;6483;-81
2021/08/24 00:15:13;;;;;;;;;58.80;48.60;34.60;27.30;;;;;;689024;28;6091;-81
2021/08/24 00:15:35;;;;;;;;;60.00;48.00;34.60;27.50;;;;;;688993;28;6042;-80
2021/08/24 00:15:57;;;;;;;;;62.00;50.40;34.70;27.40;;;;;;688633;28;6243;-83
2021/08/24 00:16:18;;;;;;;;;60.40;49.00;34.60;27.40;;;;;;688484;28;6400;-76
2021/08/24 00:16:41;;;;;;;;;57.40;46.60;34.60;27.20;;;;;;688734;28;6030;-81
2021/08/24 00:17:02;;;;;;;;;57.75;47.00;34.60;27.20;;;;;;688232;28;6449;-81
2021/08/24 00:17:23;;;;;;;;;58.00;48.25;34.70;27.30;;;;;;688882;28;5672;-82
2021/08/24 00:17:44;;;;;;;;;57.00;47.00;34.60;27.30;;;;;;688381;28;6204;-84
2021/08/24 00:18:06;;;;;;;;;57.25;47.00;34.60;27.30;;;;;;689054;28;5901;-82
2021/08/24 00:18:26;;;;;;;;;59.00;47.75;34.60;27.30;;;;;;686294;28;6311;-84
2021/08/24 00:18:47;;;;;;;;;56.67;47.00;34.60;27.30;;;;;;686265;28;6035;-83
2021/08/24 00:19:12;;;;;;;;;60.40;49.00;34.60;27.30;;;;;;686412;28;6124;-86
2021/08/24 00:19:33;;;;;;;;;58.00;48.00;34.60;27.20;;;;;;687119;28;7634;-82
2021/08/24 00:19:53;;;;;;;;;57.75;47.75;34.60;27.30;;;;;;688830;28;6253;-83
2021/08/24 00:20:15;;;;;;;;;60.00;48.50;34.60;27.40;;;;;;688925;28;6722;-84
2021/08/24 00:20:36;;;;;;;;;55.00;46.00;34.60;27.30;;;;;;689105;28;6060;-81
2021/08/24 00:20:57;;;;;;;;;57.80;47.00;34.60;27.30;;;;;;689067;28;6088;-83
2021/08/24 00:21:17;;;;;;;;;61.00;50.00;34.60;27.40;;;;;;688911;28;6099;-85
2021/08/24 00:21:39;;;;;;;;;58.25;47.75;34.60;27.40;;;;;;689117;28;6721;-84
2021/08/24 00:22:00;;;;;;;;;57.00;46.50;34.60;27.30;;;;;;688864;28;6087;-84
2021/08/24 00:22:21;;;;;;;;;55.00;45.00;34.60;27.30;;;;;;688649;28;6137;-83
2021/08/24 00:22:42;;;;;;;;;54.00;45.00;34.60;27.30;;;;;;688784;28;5786;-82
2021/08/24 00:23:06;;;;;;;;;56.40;46.80;34.60;27.50;;;;;;688893;28;6036;-81
2021/08/24 00:23:28;;;;;;;;;53.00;44.00;34.60;28.20;;;;;;689171;28;6264;-82
2021/08/24 00:23:49;;;;;;;;;55.25;45.50;34.60;27.40;;;;;;688779;28;6129;-82
2021/08/24 00:24:11;;;;;;;;;57.40;48.00;34.70;27.40;;;;;;689004;28;6115;-82
2021/08/24 00:24:31;;;;;;;;;55.50;44.50;34.60;27.30;;;;;;689203;28;6768;-81
2021/08/24 00:24:52;;;;;;;;;52.00;43.00;34.70;27.40;;;;;;689069;28;6047;-80
2021/08/24 00:25:14;;;;;;;;;55.00;46.00;34.70;27.40;;;;;;688945;28;5941;-83
2021/08/24 00:25:35;;;;;;;;;57.20;46.80;34.60;27.30;;;;;;689081;28;6431;-82
2021/08/24 00:25:58;;;;;;;;;58.50;47.50;34.70;27.40;;;;;;689212;28;6056;-82
2021/08/24 00:26:19;;;;;;;;;54.75;46.00;34.60;27.30;;;;;;688706;28;6702;-83
2021/08/24 00:26:40;;;;;;;;;56.00;45.00;34.60;27.30;;;;;;689234;28;5557;-84
2021/08/24 00:27:00;;;;;;;;;57.00;47.25;34.60;27.40;;;;;;689943;28;5926;-86
2021/08/24 00:27:21;;;;;;;;;55.60;45.60;34.70;27.40;;;;;;689295;28;6218;-83
2021/08/24 00:27:42;;;;;;;;;54.75;45.00;34.70;27.40;;;;;;689663;28;6050;-83
2021/08/24 00:28:03;;;;;;;;;54.50;44.75;34.70;27.40;;;;;;688892;28;6214;-83
2021/08/24 00:28:24;;;;;;;;;57.60;47.80;34.60;27.30;;;;;;688950;28;6577;-83
2021/08/24 00:28:45;;;;;;;;;56.40;46.00;34.70;27.40;;;;;;688837;28;6113;-83
2021/08/24 00:29:06;;;;;;;;;56.00;46.00;34.60;27.30;;;;;;689082;28;6052;-83
2021/08/24 00:29:30;;;;;;;;;56.40;46.00;34.70;27.40;;;;;;689087;28;6177;-83
2021/08/24 00:29:51;;;;;;;;;52.00;44.00;34.70;27.30;;;;;;689031;28;7658;-83
2021/08/24 00:30:11;;;;;;;;;55.67;45.67;34.70;27.40;;;;;;688955;28;5969;-84
2021/08/24 00:30:33;;;;;;;;;55.75;45.75;34.70;27.40;;;;;;688475;28;6001;-83
2021/08/24 00:30:54;;;;;;;;;54.75;44.75;34.60;27.30;;;;;;688879;28;6295;-85
2021/08/24 00:31:15;;;;;;;;;52.00;43.50;34.60;27.20;;;;;;685586;28;6776;-84
2021/08/24 00:31:36;;;;;;;;;55.75;46.00;34.70;27.30;;;;;;686166;28;6271;-85
2021/08/24 00:31:57;;;;;;;;;54.80;43.80;34.70;27.30;;;;;;686198;28;6161;-82
2021/08/24 00:32:17;;;;;;;;;55.00;45.00;34.70;27.20;;;;;;686706;28;6088;-84
2021/08/24 00:32:38;;;;;;;;;52.40;44.20;34.70;27.30;;;;;;688731;28;5967;-83
2021/08/24 00:32:59;;;;;;;;;54.00;45.00;34.70;27.40;;;;;;688812;28;5994;-84
2021/08/24 00:33:20;;;;;;;;;48.80;41.80;34.70;27.40;;;;;;688070;28;6126;-85
2021/08/24 00:33:40;;;;;;;;;56.00;45.60;34.70;27.30;;;;;;688948;28;5995;-84
2021/08/24 00:34:01;;;;;;;;;55.40;45.00;34.70;27.20;;;;;;686047;28;6001;-84
2021/08/24 00:34:22;;;;;;;;;52.00;43.25;34.70;27.30;;;;;;686186;28;5958;-83
2021/08/24 00:34:43;;;;;;;;;53.60;44.00;34.70;27.20;;;;;;685777;28;6757;-83
2021/08/24 00:35:04;;;;;;;;;56.75;45.50;34.70;27.30;;;;;;686412;28;5966;-84
2021/08/24 00:35:25;;;;;;;;;49.20;42.20;34.70;27.30;;;;;;688749;28;6614;-83
2021/08/24 00:35:45;;;;;;;;;57.20;46.60;34.70;27.20;;;;;;688796;28;6025;-82
2021/08/24 00:36:08;;;;;;;;;52.50;44.00;34.70;27.20;;;;;;688864;28;5632;-84
2021/08/24 00:36:29;;;;;;;;;56.25;45.50;34.70;27.20;;;;;;689063;28;6199;-83
2021/08/24 00:36:50;;;;;;;;;49.25;42.00;34.70;27.20;;;;;;688945;28;5588;-82
2021/08/24 00:37:10;;;;;;;;;54.33;44.00;34.70;27.10;;;;;;688583;28;5964;-82
2021/08/24 00:37:31;;;;;;;;;53.33;44.33;34.70;27.20;;;;;;688782;28;5872;-82
2021/08/24 00:37:52;;;;;;;;;51.00;43.00;34.80;27.20;;;;;;688843;28;6093;-81
2021/08/24 00:38:16;;;;;;;;;52.00;43.50;34.80;27.20;;;;;;688688;28;6009;-81
2021/08/24 00:38:37;;;;;;;;;53.75;44.75;34.80;27.20;;;;;;688529;28;6394;-82
2021/08/24 00:38:58;;;;;;;;;50.00;42.00;34.70;27.20;;;;;;688742;28;6158;-83
2021/08/24 00:39:19;;;;;;;;;51.50;43.25;34.80;27.20;;;;;;688736;28;6221;-83
2021/08/24 00:39:39;;;;;;;;;51.00;41.75;34.80;27.20;;;;;;688780;28;6065;-82
2021/08/24 00:40:00;;;;;;;;;48.50;40.50;34.80;27.10;;;;;;688904;28;5994;-84
2021/08/24 00:40:21;;;;;;;;;48.20;40.40;34.80;27.10;;;;;;688852;28;6675;-82
2021/08/24 00:40:49;;;;;;;;;52.00;43.50;34.80;27.10;;;;;;688991;28;5942;-82
2021/08/24 00:41:10;;;;;;;;;51.40;43.40;34.80;27.10;;;;;;688545;28;7545;-82
2021/08/24 00:41:31;;;;;;;;;55.60;44.60;34.80;27.10;;;;;;688926;28;6069;-84
2021/08/24 00:41:52;;;;;;;;;49.67;41.67;34.80;27.20;;;;;;688980;28;5965;-84
2021/08/24 00:42:13;;;;;;;;;49.50;42.00;34.80;27.30;;;;;;688769;28;6252;-83
2021/08/24 00:42:36;;;;;;;;;51.60;43.40;34.80;27.20;;;;;;688876;28;6217;-83
2021/08/24 00:42:57;;;;;;;;;49.75;41.75;34.80;27.20;;;;;;688790;28;6321;-83
2021/08/24 00:43:18;;;;;;;;;47.75;41.00;34.80;27.10;;;;;;689110;28;6116;-82
2021/08/24 00:43:41;;;;;;;;;49.25;41.25;34.80;27.10;;;;;;688759;28;6044;-83
2021/08/24 00:44:02;;;;;;;;;50.25;43.00;34.80;27.10;;;;;;688890;28;6361;-82
2021/08/24 00:44:23;;;;;;;;;47.40;40.20;34.80;28.00;;;;;;688777;28;6276;-83
2021/08/24 00:44:47;;;;;;;;;53.25;45.25;34.80;27.10;;;;;;688702;28;6031;-82
2021/08/24 00:45:12;;;;;;;;;51.00;43.50;34.80;27.10;;;;;;688500;28;6744;-82
2021/08/24 00:45:35;;;;;;;;;54.25;45.25;34.80;27.10;;;;;;688684;28;6734;-83
2021/08/24 00:46:31;;;;;;;;;51.50;42.75;34.80;27.20;;;;;;688824;28;6183;-81
2021/08/24 00:46:54;;;;;;;;;50.40;41.00;34.80;27.10;;;;;;687550;28;7382;-83
2021/08/24 00:47:16;;;;;;;;;50.50;42.50;34.80;27.10;;;;;;687841;28;6294;-82
2021/08/24 00:47:40;;;;;;;;;50.00;42.00;34.80;27.10;;;;;;688445;28;6898;-82
2021/08/24 00:48:01;;;;;;;;;55.25;45.25;34.80;27.20;;;;;;688808;28;7966;-84
2021/08/24 00:48:30;;;;;;;;;53.00;42.80;34.80;27.20;;;;;;688718;28;5999;-83
2021/08/24 00:48:51;;;;;;;;;53.00;44.00;34.80;27.20;;;;;;688942;28;6870;-84
2021/08/24 00:49:18;;;;;;;;;49.75;42.75;34.80;27.20;;;;;;688539;28;6405;-83
2021/08/24 00:49:39;;;;;;;;;51.50;42.75;34.80;27.20;;;;;;688636;28;6176;-83
2021/08/24 00:50:12;;;;;;;;;49.67;42.33;34.80;27.20;;;;;;688952;28;6044;-84
2021/08/24 00:50:37;;;;;;;;;50.60;41.80;34.80;27.20;;;;;;688829;28;6778;-83
2021/08/24 00:50:58;;;;;;;;;47.80;40.60;34.80;27.20;;;;;;688542;28;6286;-83
2021/08/24 00:51:23;;;;;;;;;48.60;41.60;34.80;27.20;;;;;;688628;28;6233;-83
2021/08/24 00:51:47;;;;;;;;;48.50;40.50;34.80;27.20;;;;;;690127;28;6262;-84
2021/08/24 00:52:14;;;;;;;;;51.50;42.50;34.80;27.20;;;;;;690859;28;6211;-82
2021/08/24 00:52:35;;;;;;;;;48.60;41.40;34.80;27.20;;;;;;689897;28;6392;-81
2021/08/24 00:53:05;;;;;;;;;49.40;41.80;34.80;27.20;;;;;;689607;28;6069;-82
2021/08/24 00:53:33;;;;;;;;;47.40;40.20;34.80;27.20;;;;;;689430;28;6857;-82
2021/08/24 00:53:54;;;;;;;;;52.00;43.20;34.70;27.20;;;;;;689443;28;6630;-85
2021/08/24 00:54:20;;;;;;;;;49.40;41.00;34.80;27.30;;;;;;689107;28;6297;-82
2021/08/24 00:54:43;;;;;;;;;48.40;41.40;34.70;27.20;;;;;;688889;28;6243;-82
2021/08/24 00:55:04;;;;;;;;;44.60;38.00;34.70;27.20;;;;;;688831;28;6702;-83
2021/08/24 00:55:26;;;;;;;;;52.75;44.00;34.80;27.20;;;;;;688991;28;6177;-85
2021/08/24 00:55:49;;;;;;;;;48.00;40.25;34.80;27.50;;;;;;688499;28;6210;-83
2021/08/24 00:56:10;;;;;;;;;50.00;41.00;34.80;27.50;;;;;;688655;28;6743;-84
2021/08/24 00:56:32;;;;;;;;;52.00;43.40;34.70;27.40;;;;;;689007;28;6103;-84
2021/08/24 00:56:58;;;;;;;;;50.60;42.00;34.70;27.40;;;;;;688990;28;6116;-84
2021/08/24 00:57:23;;;;;;;;;52.20;43.00;34.70;27.40;;;;;;689171;28;6156;-84
2021/08/24 00:57:54;;;;;;;;;50.60;43.20;34.70;27.30;;;;;;688874;28;6282;-82
2021/08/24 00:58:17;;;;;;;;;47.00;40.00;34.70;27.40;;;;;;688713;28;6588;-83
2021/08/24 00:58:39;;;;;;;;;48.75;40.75;34.70;27.40;;;;;;688412;28;6247;-84
2021/08/24 00:59:02;;;;;;;;;47.25;40.00;34.70;27.40;;;;;;688843;28;6401;-83
2021/08/24 00:59:24;;;;;;;;;45.00;38.60;34.70;27.40;;;;;;688799;28;6460;-82
2021/08/24 00:59:45;;;;;;;;;50.25;42.50;34.70;27.40;;;;;;688692;28;5989;-83
2021/08/24 01:00:06;;;;;;;;;51.00;42.00;34.70;27.40;;;;;;688746;28;6216;-83
2021/08/24 01:00:29;;;;;;;;;47.75;39.75;34.70;27.40;;;;;;688812;28;6043;-82
2021/08/24 01:00:50;;;;;;;;;49.00;40.00;34.70;27.40;;;;;;688747;28;6342;-83
2021/08/24 01:01:11;;;;;;;;;50.75;43.00;34.70;27.40;;;;;;688957;28;5997;-83
2021/08/24 01:01:32;;;;;;;;;44.00;38.00;34.70;27.40;;;;;;689084;28;5962;-83
2021/08/24 01:01:52;;;;;;;;;41.75;36.50;34.70;27.40;;;;;;688814;28;6027;-83
2021/08/24 01:02:18;;;;;;;;;44.80;38.20;34.70;27.40;;;;;;688747;28;6144;-84
2021/08/24 01:02:38;;;;;;;;;48.75;40.50;34.70;27.40;;;;;;688593;28;6646;-84
2021/08/24 01:03:10;;;;;;;;;49.50;42.00;34.70;27.40;;;;;;688953;28;6319;-84
2021/08/24 01:03:37;;;;;;;;;48.60;40.80;34.70;27.40;;;;;;688750;28;6306;-84
2021/08/24 01:03:58;;;;;;;;;47.00;39.50;34.70;27.40;;;;;;688918;28;6171;-84
2021/08/24 01:04:24;;;;;;;;;47.00;40.00;34.70;27.40;;;;;;688860;28;6684;-83
2021/08/24 01:04:49;;;;;;;;;49.20;40.00;34.70;27.40;;;;;;688766;28;7712;-84
2021/08/24 01:05:11;;;;;;;;;48.25;40.00;34.70;27.40;;;;;;688782;28;6211;-83
2021/08/24 01:05:34;;;;;;;;;45.75;38.25;34.70;27.40;;;;;;688772;28;6527;-84
2021/08/24 01:06:10;;;;;;;;;45.50;39.25;34.70;27.40;;;;;;688950;28;6316;-84
2021/08/24 01:06:34;;;;;;;;;46.40;39.40;34.70;27.40;;;;;;688153;28;6458;-84
2021/08/24 01:07:14;;;;;;;;;47.00;40.00;34.70;27.40;;;;;;688760;28;6227;-84
2021/08/24 01:07:34;;;;;;;;;48.50;40.50;34.70;27.40;;;;;;688525;28;6576;-84
2021/08/24 01:08:08;;;;;;;;;46.00;40.00;34.70;27.40;;;;;;688546;28;5975;-83
2021/08/24 01:08:44;;;;;;;;;46.80;40.00;34.70;27.40;;;;;;688771;28;7723;-84
2021/08/24 01:09:35;;;;;;;;;48.00;41.00;34.60;27.40;;;;;;688729;28;6268;-82
2021/08/24 01:10:45;;;;;;;;;48.80;40.80;34.70;27.40;;;;;;688564;28;6473;-82
2021/08/24 01:11:29;;;;;;;;;49.75;40.50;34.60;27.30;;;;;;682757;28;6681;-82
2021/08/24 01:12:10;;;;;;;;;49.00;41.00;34.60;27.40;;;;;;687424;28;6153;-84
2021/08/24 01:12:47;;;;;;;;;46.00;39.00;34.70;27.40;;;;;;688683;28;6476;-82
2021/08/24 01:13:28;;;;;;;;;46.20;39.40;34.60;27.40;;;;;;688554;28;6562;-83
2021/08/24 01:13:54;;;;;;;;;44.40;38.00;34.60;27.40;;;;;;688544;28;6337;-83
2021/08/24 01:14:58;;;;;;;;;42.60;37.60;34.60;27.40;;;;;;688430;28;6820;-83
2021/08/24 01:15:24;;;;;;;;;46.00;39.20;34.70;27.40;;;;;;687423;28;8233;-83
2021/08/24 01:16:01;;;;;;;;;41.80;35.40;34.60;27.60;;;;;;684909;28;8236;-83
2021/08/24 01:16:40;;;;;;;;;44.25;38.00;34.60;27.50;;;;;;686126;28;6253;-82
2021/08/24 01:17:13;;;;;;;;;43.75;37.50;34.60;27.50;;;;;;686041;28;6238;-84
2021/08/24 01:17:43;;;;;;;;;40.00;35.00;34.60;27.60;;;;;;688642;28;6206;-87
2021/08/24 01:18:39;;;;;;;;;42.25;36.00;34.60;27.80;;;;;;688652;28;6338;-86
2021/08/24 01:19:29;;;;;;;;;44.50;38.00;34.60;28.60;;;;;;688814;28;6338;-83
2021/08/24 01:20:12;;;;;;;;;44.75;38.75;34.60;28.10;;;;;;688729;28;6349;-83
2021/08/24 01:20:42;;;;;;;;;41.00;35.75;34.60;28.20;;;;;;688768;28;7454;-92
2021/08/24 01:21:35;;;;;;;;;46.40;39.00;34.60;28.10;;;;;;688770;28;6262;-84
2021/08/24 01:22:31;;;;;;;;;42.60;36.60;34.60;28.30;;;;;;685421;28;6873;-87
2021/08/24 01:23:10;;;;;;;;;46.00;39.00;34.60;28.30;;;;;;680427;28;6718;-83
2021/08/24 01:23:40;;;;;;;;;44.80;37.00;34.60;29.10;;;;;;680487;28;6176;-88
2021/08/24 01:24:18;;;;;;;;;44.80;38.40;34.60;28.90;;;;;;679703;28;6169;-84
2021/08/24 01:25:08;;;;;;;;;45.75;38.50;34.50;28.60;;;;;;677708;29;8572;-82
2021/08/24 01:25:50;;;;;;;;;43.75;37.50;34.60;28.60;;;;;;676715;29;6211;-84
2021/08/24 01:26:49;;;;;;;;;47.00;40.00;34.50;28.80;;;;;;677830;29;6532;-83
2021/08/24 01:27:13;;;;;;;;;40.80;36.00;34.50;28.80;;;;;;672389;29;6396;-85
2021/08/24 01:27:42;;;;;;;;;42.00;34.50;34.50;29.00;;;;;;672559;29;6466;-83
2021/08/24 01:28:22;;;;;;;;;39.80;34.00;34.50;28.70;;;;;;672270;29;6264;-84
2021/08/24 01:28:46;;;;;;;;;47.25;39.25;34.50;28.80;;;;;;672648;29;6226;-83
2021/08/24 01:29:21;;;;;;;;;43.50;36.25;34.50;28.80;;;;;;672529;29;6235;-83
2021/08/24 01:29:53;;;;;;;;;38.20;34.00;34.50;28.90;;;;;;672450;29;6624;-85
2021/08/24 01:30:19;;;;;;;;;43.60;36.00;34.50;28.90;;;;;;672478;29;6244;-83
2021/08/24 01:31:14;;;;;;;;;47.00;39.50;34.50;28.80;;;;;;672530;29;8445;-83
2021/08/24 01:31:52;;;;;;;;;44.00;38.00;34.50;28.70;;;;;;672772;29;6895;-90
2021/08/24 01:32:13;;;;;;;;;42.40;36.60;34.70;29.10;;;;;;672309;29;6764;-85
2021/08/24 01:33:11;;;;;;;;;41.75;36.00;34.50;28.50;;;;;;672823;29;6622;-84
2021/08/24 01:33:42;;;;;;;;;43.00;36.00;34.40;28.80;;;;;;674462;29;6227;-84
2021/08/24 01:34:08;;;;;;;;;43.50;37.00;34.50;28.90;;;;;;675176;29;6437;-85
2021/08/24 01:34:40;;;;;;;;;42.00;36.25;34.40;28.90;;;;;;675089;29;7131;-84
2021/08/24 01:35:43;;;;;;;;;37.50;34.50;34.40;28.80;;;;;;675151;29;6951;-84
2021/08/24 01:36:20;;;;;;;;;42.00;36.50;34.40;28.70;;;;;;675155;29;6361;-83
2021/08/24 01:36:54;;;;;;;;;43.75;36.75;34.50;28.90;;;;;;672370;29;8680;-84
2021/08/24 01:37:44;;;;;;;;;42.50;37.50;34.40;28.80;;;;;;672391;29;6420;-83
2021/08/24 01:38:32;;;;;;;;;40.80;36.00;34.40;28.70;;;;;;671339;29;6288;-86
2021/08/24 01:38:59;;;;;;;;;39.25;34.00;34.40;28.70;;;;;;672547;29;6890;-84
2021/08/24 01:39:27;;;;;;;;;43.20;37.00;34.40;28.80;;;;;;672334;29;6403;-85
2021/08/24 01:39:59;;;;;;;;;37.20;34.00;34.40;28.70;;;;;;672387;29;6747;-86
2021/08/24 01:40:38;;;;;;;;;40.00;35.00;34.40;28.80;;;;;;672634;29;6213;-84
2021/08/24 01:41:19;;;;;;;;;45.00;39.00;34.40;28.60;;;;;;675292;29;6406;-86
2021/08/24 01:42:07;;;;;;;;;44.75;38.00;34.40;28.70;;;;;;675256;29;6207;-84
2021/08/24 01:42:31;;;;;;;;;45.20;37.40;34.30;28.60;;;;;;674858;29;6545;-85
2021/08/24 01:42:53;;;;;;;;;37.60;34.60;34.30;28.60;;;;;;675250;29;6203;-85
2021/08/24 01:43:22;;;;;;;;;38.00;34.60;34.30;28.60;;;;;;675253;29;6091;-85
2021/08/24 01:44:01;;;;;;;;;39.50;35.25;34.40;28.60;;;;;;674981;29;6417;-85
2021/08/24 01:44:24;;;;;;;;;42.20;36.40;34.30;28.50;;;;;;675384;29;6228;-83
2021/08/24 01:45:06;;;;;;;;;37.60;33.60;34.30;28.60;;;;;;675095;29;7414;-82
2021/08/24 01:45:53;;;;;;;;;36.40;33.00;34.30;28.50;;;;;;675242;29;6571;-84
2021/08/24 01:46:39;;;;;;;;;39.60;35.00;34.40;28.50;;;;;;672332;29;8272;-84
2021/08/24 01:47:36;;;;;;;;;40.00;35.00;34.30;28.50;;;;;;672772;29;6248;-83
2021/08/24 01:48:28;;;;;;;;;41.60;36.20;34.30;28.60;;;;;;672286;29;6591;-82
2021/08/24 01:48:53;;;;;;;;;37.20;34.00;34.30;28.50;;;;;;671349;29;7962;-83
2021/08/24 01:49:20;;;;;;;;;37.40;33.40;34.30;28.50;;;;;;672023;29;6638;-83
2021/08/24 01:49:58;;;;;;;;;35.20;32.20;34.30;28.50;;;;;;672261;29;6686;-84
2021/08/24 01:50:31;;;;;;;;;36.60;32.80;34.30;28.50;;;;;;667176;29;6506;-84
2021/08/24 01:51:24;;;;;;;;;35.20;32.20;34.30;28.50;;;;;;667339;29;8468;-83
2021/08/24 01:51:50;;;;;;;;;34.75;32.00;34.30;28.50;;;;;;667860;29;6276;-83
2021/08/24 01:52:15;;;;;;;;;36.20;32.00;34.30;28.40;;;;;;671253;29;6212;-84
2021/08/24 01:52:42;;;;;;;;;41.00;36.00;34.40;28.40;;;;;;673044;29;6476;-83
2021/08/24 01:53:21;;;;;;;;;33.50;32.00;34.40;28.40;;;;;;675159;29;6175;-83
2021/08/24 01:54:01;;;;;;;;;44.00;36.00;34.40;28.50;;;;;;675076;29;6503;-83
2021/08/24 01:54:38;;;;;;;;;37.40;34.00;34.40;28.40;;;;;;674920;29;6382;-84
2021/08/24 01:55:06;;;;;;;;;39.20;34.20;34.40;28.40;;;;;;675296;29;6570;-84
2021/08/24 01:55:32;;;;;;;;;34.60;31.60;34.30;28.30;;;;;;675029;29;8636;-83
2021/08/24 01:56:03;;;;;;;;;42.50;36.25;34.30;28.30;;;;;;675268;29;6214;-83
2021/08/24 01:56:28;;;;;;;;;35.40;32.40;34.40;28.40;;;;;;675235;29;6221;-83
2021/08/24 01:56:51;;;;;;;;;39.50;33.50;34.30;28.30;;;;;;675200;29;7414;-84
2021/08/24 01:57:22;;;;;;;;;39.50;33.00;34.40;28.30;;;;;;675128;29;6271;-82
2021/08/24 01:58:07;;;;;;;;;33.80;32.00;34.40;28.30;;;;;;675169;29;6279;-83
2021/08/24 01:58:46;;;;;;;;;36.00;33.00;34.40;28.30;;;;;;674979;29;6211;-85
2021/08/24 01:59:18;;;;;;;;;33.20;31.20;34.40;28.30;;;;;;675171;29;6780;-82
2021/08/24 01:59:46;;;;;;;;;39.00;34.00;34.40;28.30;;;;;;675109;29;6585;-85
2021/08/24 02:00:12;;;;;;;;;34.40;32.20;34.40;28.30;;;;;;675074;29;6831;-84
2021/08/24 02:00:38;;;;;;;;;35.40;32.40;34.40;28.30;;;;;;679806;29;6413;-84
2021/08/24 02:01:03;;;;;;;;;34.20;30.00;34.40;28.20;;;;;;680391;29;6387;-82
2021/08/24 02:01:46;;;;;;;;;36.00;32.25;34.40;28.30;;;;;;680303;29;6624;-83
2021/08/24 02:02:14;;;;;;;;;37.00;33.25;34.40;28.20;;;;;;679808;29;6610;-81
2021/08/24 02:02:57;;;;;;;;;35.50;33.00;34.40;28.30;;;;;;677564;29;8947;-83
2021/08/24 02:03:32;;;;;;;;;31.00;29.25;34.40;28.30;;;;;;677733;29;6952;-83
2021/08/24 02:03:58;;;;;;;;;34.00;31.00;34.40;28.30;;;;;;677855;29;6559;-82
2021/08/24 02:04:34;;;;;;;;;33.50;30.50;34.40;28.30;;;;;;678144;29;6414;-84
2021/08/24 02:05:30;;;;;;;;;36.20;31.80;34.40;28.30;;;;;;680263;29;6393;-84
2021/08/24 02:05:56;;;;;;;;;32.80;30.80;34.40;28.30;;;;;;685965;28;7419;-84
2021/08/24 02:06:33;;;;;;;;;38.25;34.75;34.40;28.20;;;;;;685736;28;6923;-82
2021/08/24 02:06:54;;;;;;;;;33.40;32.00;34.40;28.30;;;;;;685724;28;6206;-83
2021/08/24 02:07:18;;;;;;;;;38.00;33.00;34.40;28.30;;;;;;685785;28;6450;-83
2021/08/24 02:07:40;;;;;;;;;33.00;30.00;34.40;28.30;;;;;;685769;28;6268;-84
2021/08/24 02:08:06;;;;;;;;;32.00;30.00;34.40;28.30;;;;;;685742;28;5895;-84
2021/08/24 02:08:34;;;;;;;;;36.60;32.40;34.40;28.20;;;;;;683206;28;8237;-84
2021/08/24 02:09:00;;;;;;;;;30.20;29.20;34.40;28.30;;;;;;683147;28;6584;-83
2021/08/24 02:09:29;;;;;;;;;34.00;31.60;34.40;28.30;;;;;;683072;28;8515;-83
2021/08/24 02:09:53;;;;;;;;;37.00;33.00;34.40;28.30;;;;;;683124;28;6566;-83
2021/08/24 02:10:20;;;;;;;;;37.00;32.00;34.40;28.30;;;;;;683878;28;7530;-85
2021/08/24 02:10:46;;;;;;;;;32.00;30.50;34.40;28.20;;;;;;683042;28;6669;-84
2021/08/24 02:11:07;;;;;;;;;37.00;33.00;34.40;28.30;;;;;;683667;28;6229;-84
2021/08/24 02:11:32;;;;;;;;;34.00;31.50;34.40;28.30;;;;;;686078;28;6001;-85
2021/08/24 02:11:54;;;;;;;;;35.00;32.50;34.40;28.30;;;;;;683141;28;9702;-83
2021/08/24 02:12:18;;;;;;;;;33.40;31.60;34.40;28.20;;;;;;683065;28;7543;-84
2021/08/24 02:12:42;;;;;;;;;32.00;30.00;34.40;28.20;;;;;;685290;28;7641;-84
2021/08/24 02:13:04;;;;;;;;;32.00;30.00;34.40;28.20;;;;;;685777;28;6266;-84
2021/08/24 02:13:29;;;;;;;;;30.25;30.00;34.40;28.20;;;;;;683026;28;9221;-83
2021/08/24 02:13:52;;;;;;;;;30.00;29.00;34.40;28.20;;;;;;685522;28;6547;-84
2021/08/24 02:14:15;;;;;;;;;41.20;34.60;34.40;28.20;;;;;;685766;28;6808;-83
2021/08/24 02:14:40;;;;;;;;;30.25;29.25;34.40;28.20;;;;;;683021;28;9563;-84
2021/08/24 02:15:02;;;;;;;;;31.40;29.40;34.40;28.20;;;;;;683372;28;6634;-84
2021/08/24 02:15:32;;;;;;;;;29.00;27.00;34.50;28.20;;;;;;683282;28;6230;-84
2021/08/24 02:15:56;;;;;;;;;31.25;30.00;34.40;28.10;;;;;;683275;28;6086;-84
2021/08/24 02:16:22;;;;;;;;;30.20;29.00;34.40;28.20;;;;;;685899;28;6451;-84
2021/08/24 02:16:47;;;;;;;;;36.50;32.75;34.40;28.10;;;;;;686097;28;6213;-83
2021/08/24 02:17:12;;;;;;;;;30.00;29.60;34.40;28.10;;;;;;685936;28;7603;-83
2021/08/24 02:17:34;;;;;;;;;33.20;30.00;34.40;28.10;;;;;;685756;28;6815;-85
2021/08/24 02:17:58;;;;;;;;;36.20;32.00;34.40;28.10;;;;;;686099;28;6545;-83
2021/08/24 02:18:29;;;;;;;;;31.50;30.50;34.40;28.10;;;;;;685743;28;6516;-84
2021/08/24 02:19:04;;;;;;;;;28.40;28.40;34.50;29.00;;;;;;685972;28;6230;-83
2021/08/24 02:19:37;;;;;;;;;30.20;30.00;34.40;28.20;;;;;;685696;28;8193;-82
2021/08/24 02:20:16;;;;;;;;;34.60;30.60;34.40;28.20;;;;;;685874;28;7341;-85
2021/08/24 02:20:44;;;;;;;;;33.25;32.00;34.40;28.20;;;;;;686248;28;6567;-85
2021/08/24 02:21:14;;;;;;;;;36.50;32.75;34.40;28.20;;;;;;686159;28;7732;-84
2021/08/24 02:21:42;;;;;;;;;28.60;28.60;34.40;28.10;;;;;;686350;28;6306;-83
2021/08/24 02:22:12;;;;;;;;;33.00;31.00;34.40;28.20;;;;;;683378;28;8216;-84
2021/08/24 02:22:37;;;;;;;;;31.75;26.75;34.40;28.10;;;;;;683602;28;6643;-85